<?xml version="1.0" encoding="utf-8"?>
<gpx xmlns:xsi="http://www.w3.org/2001/XMLSchema-instance" xmlns:xsd="http://www.w3.org/2001/XMLSchema" version="1.1" creator="Shapelink.com" xmlns="http://www.topografix.com/GPX/1/1" xmlns:gpxtpx="http://www.garmin.com/xmlschemas/TrackPointExtension/v1">
  <metadata>
    <name>Cykling 6.19 km, 2019-07-07</name>
    <desc></desc>
    <author><name>Marian Moron</name></author> 
    <time>2019-07-07T11:30:45Z</time>
  </metadata>
  <trk>
    <name>Cykling 6.19 km, 2019-07-07</name>
    <trkseg>
      <trkpt lat="51.21434944918" lon="4.41039484752">
        <ele>6.6</ele>
        <time>2019-07-07T11:30:45Z</time>
      </trkpt>
      <trkpt lat="51.214319190521" lon="4.410602131907">
        <ele>6</ele>
        <time>2019-07-07T11:30:54Z</time>
      </trkpt>
      <trkpt lat="51.214293458088" lon="4.410628618711">
        <ele>6</ele>
        <time>2019-07-07T11:30:57Z</time>
      </trkpt>
      <trkpt lat="51.214212488934" lon="4.41075275465">
        <ele>4.4</ele>
        <time>2019-07-07T11:31:05Z</time>
      </trkpt>
      <trkpt lat="51.213898000046" lon="4.411442752658">
        <ele>3</ele>
        <time>2019-07-07T11:31:28Z</time>
      </trkpt>
      <trkpt lat="51.213779396161" lon="4.411721283195">
        <ele>1.4</ele>
        <time>2019-07-07T11:31:39Z</time>
      </trkpt>
      <trkpt lat="51.213839075289" lon="4.411892022498">
        <ele>0</ele>
        <time>2019-07-07T11:31:47Z</time>
      </trkpt>
      <trkpt lat="51.214275437003" lon="4.412477665851">
        <ele>0</ele>
        <time>2019-07-07T11:32:05Z</time>
      </trkpt>
      <trkpt lat="51.214757228615" lon="4.412964151327">
        <ele>5.6</ele>
        <time>2019-07-07T11:32:19Z</time>
      </trkpt>
      <trkpt lat="51.215158721625" lon="4.413549459404">
        <ele>17</ele>
        <time>2019-07-07T11:32:33Z</time>
      </trkpt>
      <trkpt lat="51.215492153607" lon="4.414034436138">
        <ele>29</ele>
        <time>2019-07-07T11:32:52Z</time>
      </trkpt>
      <trkpt lat="51.215513862728" lon="4.414119177147">
        <ele>30.2</ele>
        <time>2019-07-07T11:33:10Z</time>
      </trkpt>
      <trkpt lat="51.216026080637" lon="4.414396701856">
        <ele>32</ele>
        <time>2019-07-07T11:33:26Z</time>
      </trkpt>
      <trkpt lat="51.216558415106" lon="4.414762990886">
        <ele>33.8</ele>
        <time>2019-07-07T11:33:39Z</time>
      </trkpt>
      <trkpt lat="51.217082702951" lon="4.415038671577">
        <ele>40.4</ele>
        <time>2019-07-07T11:33:54Z</time>
      </trkpt>
      <trkpt lat="51.217584527304" lon="4.415439158759">
        <ele>48.4</ele>
        <time>2019-07-07T11:34:11Z</time>
      </trkpt>
      <trkpt lat="51.21775752972" lon="4.414948482333">
        <ele>50.8</ele>
        <time>2019-07-07T11:34:25Z</time>
      </trkpt>
      <trkpt lat="51.217810670966" lon="4.414995253335">
        <ele>50.8</ele>
        <time>2019-07-07T11:34:30Z</time>
      </trkpt>
      <trkpt lat="51.217768929104" lon="4.41586739003">
        <ele>49.2</ele>
        <time>2019-07-07T11:34:49Z</time>
      </trkpt>
      <trkpt lat="51.21777010257" lon="4.416632992776">
        <ele>40.2</ele>
        <time>2019-07-07T11:35:14Z</time>
      </trkpt>
      <trkpt lat="51.2182788839" lon="4.417035156338">
        <ele>58.2</ele>
        <time>2019-07-07T11:35:35Z</time>
      </trkpt>
      <trkpt lat="51.218822785391" lon="4.417231544255">
        <ele>49.8</ele>
        <time>2019-07-07T11:35:50Z</time>
      </trkpt>
      <trkpt lat="51.219351431824" lon="4.417268508434">
        <ele>23.6</ele>
        <time>2019-07-07T11:36:09Z</time>
      </trkpt>
      <trkpt lat="51.21939116203" lon="4.41727554923">
        <ele>21.6</ele>
        <time>2019-07-07T11:36:15Z</time>
      </trkpt>
      <trkpt lat="51.219469197519" lon="4.417288624994">
        <ele>16.6</ele>
        <time>2019-07-07T11:36:21Z</time>
      </trkpt>
      <trkpt lat="51.219603978471" lon="4.417358865316">
        <ele>20.2</ele>
        <time>2019-07-07T11:36:31Z</time>
      </trkpt>
      <trkpt lat="51.219602637367" lon="4.417377473134">
        <ele>23.4</ele>
        <time>2019-07-07T11:37:04Z</time>
      </trkpt>
      <trkpt lat="51.219602469729" lon="4.417423154489">
        <ele>25</ele>
        <time>2019-07-07T11:37:08Z</time>
      </trkpt>
      <trkpt lat="51.219462240542" lon="4.418252124399">
        <ele>32.4</ele>
        <time>2019-07-07T11:37:24Z</time>
      </trkpt>
      <trkpt lat="51.219446147294" lon="4.418354802674">
        <ele>33.4</ele>
        <time>2019-07-07T11:37:29Z</time>
      </trkpt>
      <trkpt lat="51.219468694605" lon="4.418366537334">
        <ele>31.2</ele>
        <time>2019-07-07T11:38:10Z</time>
      </trkpt>
      <trkpt lat="51.219454445375" lon="4.418415403811">
        <ele>31.4</ele>
        <time>2019-07-07T11:38:14Z</time>
      </trkpt>
      <trkpt lat="51.219280772407" lon="4.419247475024">
        <ele>28.2</ele>
        <time>2019-07-07T11:38:31Z</time>
      </trkpt>
      <trkpt lat="51.219255459069" lon="4.419550983623">
        <ele>29.6</ele>
        <time>2019-07-07T11:38:39Z</time>
      </trkpt>
      <trkpt lat="51.219811011401" lon="4.419710407361">
        <ele>43.6</ele>
        <time>2019-07-07T11:38:55Z</time>
      </trkpt>
      <trkpt lat="51.220346363354" lon="4.419830184712">
        <ele>62.4</ele>
        <time>2019-07-07T11:39:08Z</time>
      </trkpt>
      <trkpt lat="51.220932677259" lon="4.419923475259">
        <ele>63.2</ele>
        <time>2019-07-07T11:39:20Z</time>
      </trkpt>
      <trkpt lat="51.221465263185" lon="4.420136794614">
        <ele>35.2</ele>
        <time>2019-07-07T11:39:34Z</time>
      </trkpt>
      <trkpt lat="51.221867678204" lon="4.420709278384">
        <ele>25.8</ele>
        <time>2019-07-07T11:39:48Z</time>
      </trkpt>
      <trkpt lat="51.222266656644" lon="4.421324761301">
        <ele>29</ele>
        <time>2019-07-07T11:40:05Z</time>
      </trkpt>
      <trkpt lat="51.222597406418" lon="4.421971843981">
        <ele>34.4</ele>
        <time>2019-07-07T11:40:28Z</time>
      </trkpt>
      <trkpt lat="51.222708969507" lon="4.422826965419">
        <ele>34</ele>
        <time>2019-07-07T11:40:45Z</time>
      </trkpt>
      <trkpt lat="51.222773761594" lon="4.423695078802">
        <ele>30.2</ele>
        <time>2019-07-07T11:41:01Z</time>
      </trkpt>
      <trkpt lat="51.222809384669" lon="4.4245619349">
        <ele>37.6</ele>
        <time>2019-07-07T11:41:18Z</time>
      </trkpt>
      <trkpt lat="51.22298783532" lon="4.425384031652">
        <ele>23.8</ele>
        <time>2019-07-07T11:41:41Z</time>
      </trkpt>
      <trkpt lat="51.223070397035" lon="4.426244517506">
        <ele>25</ele>
        <time>2019-07-07T11:41:59Z</time>
      </trkpt>
      <trkpt lat="51.223214230439" lon="4.427127047757">
        <ele>33.4</ele>
        <time>2019-07-07T11:42:14Z</time>
      </trkpt>
      <trkpt lat="51.223383880095" lon="4.42797085363">
        <ele>24.4</ele>
        <time>2019-07-07T11:42:30Z</time>
      </trkpt>
      <trkpt lat="51.223439452092" lon="4.428174785257">
        <ele>23.2</ele>
        <time>2019-07-07T11:42:33Z</time>
      </trkpt>
      <trkpt lat="51.223665260478" lon="4.429029152324">
        <ele>20.2</ele>
        <time>2019-07-07T11:42:44Z</time>
      </trkpt>
      <trkpt lat="51.22384530369" lon="4.429849740334">
        <ele>17.6</ele>
        <time>2019-07-07T11:42:54Z</time>
      </trkpt>
      <trkpt lat="51.223976228968" lon="4.430376626568">
        <ele>18</ele>
        <time>2019-07-07T11:43:03Z</time>
      </trkpt>
      <trkpt lat="51.224006068532" lon="4.430520711429">
        <ele>17.8</ele>
        <time>2019-07-07T11:43:05Z</time>
      </trkpt>
      <trkpt lat="51.224046804566" lon="4.430665718299">
        <ele>17.2</ele>
        <time>2019-07-07T11:43:07Z</time>
      </trkpt>
      <trkpt lat="51.224267080898" lon="4.431488150327">
        <ele>16.6</ele>
        <time>2019-07-07T11:43:19Z</time>
      </trkpt>
      <trkpt lat="51.224306811104" lon="4.431870532605">
        <ele>14.4</ele>
        <time>2019-07-07T11:43:28Z</time>
      </trkpt>
      <trkpt lat="51.224377386702" lon="4.432112769515">
        <ele>5</ele>
        <time>2019-07-07T11:43:38Z</time>
      </trkpt>
      <trkpt lat="51.223976731882" lon="4.432612246936">
        <ele>0</ele>
        <time>2019-07-07T11:43:57Z</time>
      </trkpt>
      <trkpt lat="51.224062562538" lon="4.432986079676">
        <ele>0</ele>
        <time>2019-07-07T11:44:07Z</time>
      </trkpt>
      <trkpt lat="51.224236319325" lon="4.433827119522">
        <ele>0</ele>
        <time>2019-07-07T11:44:22Z</time>
      </trkpt>
      <trkpt lat="51.224424576799" lon="4.434674110517">
        <ele>0</ele>
        <time>2019-07-07T11:44:35Z</time>
      </trkpt>
      <trkpt lat="51.224503953392" lon="4.435006117576">
        <ele>2.6</ele>
        <time>2019-07-07T11:44:41Z</time>
      </trkpt>
      <trkpt lat="51.224659102361" lon="4.435869704733">
        <ele>0</ele>
        <time>2019-07-07T11:44:53Z</time>
      </trkpt>
      <trkpt lat="51.22489387938" lon="4.436651652184">
        <ele>0</ele>
        <time>2019-07-07T11:45:10Z</time>
      </trkpt>
      <trkpt lat="51.225434847206" lon="4.436670679097">
        <ele>0</ele>
        <time>2019-07-07T11:45:29Z</time>
      </trkpt>
      <trkpt lat="51.22601370122" lon="4.436717953013">
        <ele>27.8</ele>
        <time>2019-07-07T11:45:43Z</time>
      </trkpt>
      <trkpt lat="51.226544610766" lon="4.436836473079">
        <ele>16.4</ele>
        <time>2019-07-07T11:45:58Z</time>
      </trkpt>
      <trkpt lat="51.226677715338" lon="4.437039734154">
        <ele>0</ele>
        <time>2019-07-07T11:47:17Z</time>
      </trkpt>
      <trkpt lat="51.226784165468" lon="4.437115338892">
        <ele>0</ele>
        <time>2019-07-07T11:47:29Z</time>
      </trkpt>
      <trkpt lat="51.226744770538" lon="4.437038560688">
        <ele>0</ele>
        <time>2019-07-07T11:47:38Z</time>
      </trkpt>
      <trkpt lat="51.226732365326" lon="4.437027915675">
        <ele>0</ele>
        <time>2019-07-07T11:47:39Z</time>
      </trkpt>
      <trkpt lat="51.226636727847" lon="4.436997657016">
        <ele>0</ele>
        <time>2019-07-07T11:51:29Z</time>
      </trkpt>
      <trkpt lat="51.226645025928" lon="4.437036800489">
        <ele>0</ele>
        <time>2019-07-07T11:51:33Z</time>
      </trkpt>
      <trkpt lat="51.226857171817" lon="4.437814137895">
        <ele>0</ele>
        <time>2019-07-07T11:51:58Z</time>
      </trkpt>
      <trkpt lat="51.227002849239" lon="4.438660709795">
        <ele>0</ele>
        <time>2019-07-07T11:52:09Z</time>
      </trkpt>
      <trkpt lat="51.227336784135" lon="4.439410889845">
        <ele>0</ele>
        <time>2019-07-07T11:52:22Z</time>
      </trkpt>
      <trkpt lat="51.227502410479" lon="4.439745830569">
        <ele>0</ele>
        <time>2019-07-07T11:52:28Z</time>
      </trkpt>
      <trkpt lat="51.227688991573" lon="4.44024195523">
        <ele>0</ele>
        <time>2019-07-07T11:52:41Z</time>
      </trkpt>
      <trkpt lat="51.227683543338" lon="4.440221251937">
        <ele>0</ele>
        <time>2019-07-07T11:53:24Z</time>
      </trkpt>
      <trkpt lat="51.22771187416" lon="4.440288726232">
        <ele>0</ele>
        <time>2019-07-07T11:53:29Z</time>
      </trkpt>
      <trkpt lat="51.228090400764" lon="4.440913680696">
        <ele>0</ele>
        <time>2019-07-07T11:53:44Z</time>
      </trkpt>
      <trkpt lat="51.228414193561" lon="4.441557159159">
        <ele>0</ele>
        <time>2019-07-07T11:53:56Z</time>
      </trkpt>
      <trkpt lat="51.228487870462" lon="4.441644414738">
        <ele>0</ele>
        <time>2019-07-07T11:53:58Z</time>
      </trkpt>
      <trkpt lat="51.228868324903" lon="4.442323683914">
        <ele>0</ele>
        <time>2019-07-07T11:54:12Z</time>
      </trkpt>
      <trkpt lat="51.229275852881" lon="4.442897173512">
        <ele>0</ele>
        <time>2019-07-07T11:54:27Z</time>
      </trkpt>
      <trkpt lat="51.229298064916" lon="4.442953248423">
        <ele>0</ele>
        <time>2019-07-07T11:54:28Z</time>
      </trkpt>
      <trkpt lat="51.22945279479" lon="4.443758749013">
        <ele>0</ele>
        <time>2019-07-07T11:54:41Z</time>
      </trkpt>
      <trkpt lat="51.22948464601" lon="4.443998052258">
        <ele>0</ele>
        <time>2019-07-07T11:54:45Z</time>
      </trkpt>
      <trkpt lat="51.229538793084" lon="4.44418647737">
        <ele>0</ele>
        <time>2019-07-07T11:54:48Z</time>
      </trkpt>
      <trkpt lat="51.229750687516" lon="4.444893239178">
        <ele>0</ele>
        <time>2019-07-07T11:55:03Z</time>
      </trkpt>
      <trkpt lat="51.22976711604" lon="4.444921150905">
        <ele>0</ele>
        <time>2019-07-07T11:55:21Z</time>
      </trkpt>
      <trkpt lat="51.229769295334" lon="4.444943195302">
        <ele>0</ele>
        <time>2019-07-07T11:55:22Z</time>
      </trkpt>
      <trkpt lat="51.230017064298" lon="4.445780798569">
        <ele>0</ele>
        <time>2019-07-07T11:55:37Z</time>
      </trkpt>
      <trkpt lat="51.230266258185" lon="4.446601218941">
        <ele>0</ele>
        <time>2019-07-07T11:55:47Z</time>
      </trkpt>
      <trkpt lat="51.230492653304" lon="4.447420717304">
        <ele>0</ele>
        <time>2019-07-07T11:55:56Z</time>
      </trkpt>
      <trkpt lat="51.23058267491" lon="4.447776361321">
        <ele>0</ele>
        <time>2019-07-07T11:56:00Z</time>
      </trkpt>
      <trkpt lat="51.230783505234" lon="4.448661238504">
        <ele>0</ele>
        <time>2019-07-07T11:56:11Z</time>
      </trkpt>
      <trkpt lat="51.230983413549" lon="4.449511246983">
        <ele>0</ele>
        <time>2019-07-07T11:56:21Z</time>
      </trkpt>
      <trkpt lat="51.23115599687" lon="4.450359662901">
        <ele>0</ele>
        <time>2019-07-07T11:56:31Z</time>
      </trkpt>
      <trkpt lat="51.231314330961" lon="4.451226016085">
        <ele>0</ele>
        <time>2019-07-07T11:56:41Z</time>
      </trkpt>
      <trkpt lat="51.231467300636" lon="4.452095219115">
        <ele>0</ele>
        <time>2019-07-07T11:56:50Z</time>
      </trkpt>
      <trkpt lat="51.231612894239" lon="4.452972636407">
        <ele>0</ele>
        <time>2019-07-07T11:56:59Z</time>
      </trkpt>
      <trkpt lat="51.231761086231" lon="4.453807808923">
        <ele>0</ele>
        <time>2019-07-07T11:57:09Z</time>
      </trkpt>
      <trkpt lat="51.231919168865" lon="4.454685142396">
        <ele>0</ele>
        <time>2019-07-07T11:57:19Z</time>
      </trkpt>
      <trkpt lat="51.232077670594" lon="4.455588459759">
        <ele>0</ele>
        <time>2019-07-07T11:57:29Z</time>
      </trkpt>
      <trkpt lat="51.23222385093" lon="4.456450538174">
        <ele>0</ele>
        <time>2019-07-07T11:57:39Z</time>
      </trkpt>
      <trkpt lat="51.232267604448" lon="4.456686656297">
        <ele>0</ele>
        <time>2019-07-07T11:57:42Z</time>
      </trkpt>
      <trkpt lat="51.2322515112" lon="4.456831327891">
        <ele>0</ele>
        <time>2019-07-07T11:57:44Z</time>
      </trkpt>
      <trkpt lat="51.231891257138" lon="4.456563274729">
        <ele>0</ele>
        <time>2019-07-07T11:57:54Z</time>
      </trkpt>
      <trkpt lat="51.231454308691" lon="4.456165637393">
        <ele>0</ele>
        <time>2019-07-07T11:58:08Z</time>
      </trkpt>
      <trkpt lat="51.231327406725" lon="4.456456405504">
        <ele>0.2</ele>
        <time>2019-07-07T11:58:16Z</time>
      </trkpt>
      <trkpt lat="51.231272589099" lon="4.456457243694">
        <ele>1.8</ele>
        <time>2019-07-07T11:58:18Z</time>
      </trkpt>
      <trkpt lat="51.230765819425" lon="4.456552378259">
        <ele>0</ele>
        <time>2019-07-07T11:58:34Z</time>
      </trkpt>
      <trkpt lat="51.230186546316" lon="4.456667713203">
        <ele>0</ele>
        <time>2019-07-07T11:58:46Z</time>
      </trkpt>
      <trkpt lat="51.229714812984" lon="4.456921600954">
        <ele>0</ele>
        <time>2019-07-07T11:58:58Z</time>
      </trkpt>
      <trkpt lat="51.229726380006" lon="4.457066775462">
        <ele>0</ele>
        <time>2019-07-07T11:59:00Z</time>
      </trkpt>
      <trkpt lat="51.229819670553" lon="4.457905803652">
        <ele>0</ele>
        <time>2019-07-07T11:59:14Z</time>
      </trkpt>
      <trkpt lat="51.229805169866" lon="4.457976463069">
        <ele>0</ele>
        <time>2019-07-07T11:59:17Z</time>
      </trkpt>
      <trkpt lat="51.229618337315" lon="4.457924830565">
        <ele>0</ele>
        <time>2019-07-07T11:59:33Z</time>
      </trkpt>
      <trkpt lat="51.229755297561" lon="4.45699066781">
        <ele>0</ele>
        <time>2019-07-07T11:59:53Z</time>
      </trkpt>
      <trkpt lat="51.229803242029" lon="4.456767038718">
        <ele>0</ele>
        <time>2019-07-07T11:59:57Z</time>
      </trkpt>
      <trkpt lat="51.230354351954" lon="4.456626558074">
        <ele>0</ele>
        <time>2019-07-07T12:00:10Z</time>
      </trkpt>
      <trkpt lat="51.23090370168" lon="4.456465625594">
        <ele>0</ele>
        <time>2019-07-07T12:00:22Z</time>
      </trkpt>
      <trkpt lat="51.231135461215" lon="4.456237051181">
        <ele>0</ele>
        <time>2019-07-07T12:00:32Z</time>
      </trkpt>
      <trkpt lat="51.230984251739" lon="4.455976541729">
        <ele>0.4</ele>
        <time>2019-07-07T12:00:40Z</time>
      </trkpt>
      <trkpt lat="51.23106547235" lon="4.455806975892">
        <ele>0</ele>
        <time>2019-07-07T12:00:44Z</time>
      </trkpt>
      <trkpt lat="51.231286000139" lon="4.455787613703">
        <ele>0</ele>
        <time>2019-07-07T12:00:51Z</time>
      </trkpt>
      <trkpt lat="51.231175778154" lon="4.45518185379">
        <ele>0</ele>
        <time>2019-07-07T12:01:00Z</time>
      </trkpt>
      <trkpt lat="51.231153649938" lon="4.455021340405">
        <ele>0</ele>
        <time>2019-07-07T12:01:02Z</time>
      </trkpt>
      <trkpt lat="51.230989364698" lon="4.454176193428">
        <ele>0</ele>
        <time>2019-07-07T12:01:12Z</time>
      </trkpt>
      <trkpt lat="51.230831952616" lon="4.453271451142">
        <ele>0</ele>
        <time>2019-07-07T12:01:23Z</time>
      </trkpt>
      <trkpt lat="51.230715025111" lon="4.452725705633">
        <ele>0</ele>
        <time>2019-07-07T12:01:30Z</time>
      </trkpt>
      <trkpt lat="51.23066817029" lon="4.452495203383">
        <ele>0</ele>
        <time>2019-07-07T12:01:33Z</time>
      </trkpt>
      <trkpt lat="51.230522828144" lon="4.451630526579">
        <ele>0</ele>
        <time>2019-07-07T12:01:43Z</time>
      </trkpt>
      <trkpt lat="51.230461724093" lon="4.451167929518">
        <ele>0</ele>
        <time>2019-07-07T12:01:48Z</time>
      </trkpt>
      <trkpt lat="51.230411432693" lon="4.450826450912">
        <ele>0</ele>
        <time>2019-07-07T12:01:52Z</time>
      </trkpt>
      <trkpt lat="51.230353513764" lon="4.450718240583">
        <ele>0</ele>
        <time>2019-07-07T12:01:54Z</time>
      </trkpt>
      <trkpt lat="51.230270532954" lon="4.450684712983">
        <ele>0</ele>
        <time>2019-07-07T12:01:56Z</time>
      </trkpt>
      <trkpt lat="51.229716405545" lon="4.450868108955">
        <ele>0</ele>
        <time>2019-07-07T12:02:08Z</time>
      </trkpt>
      <trkpt lat="51.229675082778" lon="4.450861068159">
        <ele>0</ele>
        <time>2019-07-07T12:02:09Z</time>
      </trkpt>
      <trkpt lat="51.229617247668" lon="4.450775908055">
        <ele>0</ele>
        <time>2019-07-07T12:02:11Z</time>
      </trkpt>
      <trkpt lat="51.229444915804" lon="4.449916428029">
        <ele>0</ele>
        <time>2019-07-07T12:02:22Z</time>
      </trkpt>
      <trkpt lat="51.229292784319" lon="4.449033059588">
        <ele>0</ele>
        <time>2019-07-07T12:02:33Z</time>
      </trkpt>
      <trkpt lat="51.229221202893" lon="4.448751511567">
        <ele>0</ele>
        <time>2019-07-07T12:02:38Z</time>
      </trkpt>
      <trkpt lat="51.228833623837" lon="4.448080289015">
        <ele>0</ele>
        <time>2019-07-07T12:02:49Z</time>
      </trkpt>
      <trkpt lat="51.22863807411" lon="4.447730512328">
        <ele>0</ele>
        <time>2019-07-07T12:02:55Z</time>
      </trkpt>
      <trkpt lat="51.228561044449" lon="4.447599167955">
        <ele>0</ele>
        <time>2019-07-07T12:02:59Z</time>
      </trkpt>
      <trkpt lat="51.228551656721" lon="4.447619200696">
        <ele>0</ele>
        <time>2019-07-07T12:03:01Z</time>
      </trkpt>
      <trkpt lat="51.22889958939" lon="4.448282460443">
        <ele>0</ele>
        <time>2019-07-07T12:03:24Z</time>
      </trkpt>
      <trkpt lat="51.229023809148" lon="4.448399555586">
        <ele>0</ele>
        <time>2019-07-07T12:03:33Z</time>
      </trkpt>
      <trkpt lat="51.228996232697" lon="4.448477339618">
        <ele>0</ele>
        <time>2019-07-07T12:03:43Z</time>
      </trkpt>
      <trkpt lat="51.228988186073" lon="4.448561242437">
        <ele>0</ele>
        <time>2019-07-07T12:03:57Z</time>
      </trkpt>
      <trkpt lat="51.228581496285" lon="4.449145041772">
        <ele>1.4</ele>
        <time>2019-07-07T12:04:12Z</time>
      </trkpt>
      <trkpt lat="51.228470939024" lon="4.449273368661">
        <ele>0</ele>
        <time>2019-07-07T12:04:19Z</time>
      </trkpt>
    </trkseg>
  </trk>
</gpx>